Baltic Betina — 9HDW8 — position and weather

sailwx.info

Track history (hours):
 
Tides and Currents Weather Stations Pressure Air Temp Water Temp Dewpoint Dewpoint Depression Visibility Wind Speed Wind Dir Waves Ship Positions

Baltic Betina

Last reported at 2014-Nov-27 03:32 UTC. Time now 2014-Nov-27 04:17 UTC.
Position N 58°36' E 005°34'.

Length 90 m; draft 4.5 m.

Type: Ship. MMSI: 215869000.

Date/timePositionNaut miles runAvg speedWind from/ knotsBaromVisibWave heightAir tempDewpointWater temp
2014-Nov-27 03:32N 58°36' E 005°34'7 7.0
2014-Nov-27 02:33N 58°43' E 005°28'8 7.6
2014-Nov-27 01:33N 58°50' E 005°28'6 6.1
2014-Nov-27 00:33N 58°55' E 005°35'0 0.0
2014-Nov-26 23:33N 58°55' E 005°35'7 7.0
2014-Nov-26 22:34N 59°02' E 005°32'1010.3
2014-Nov-26 21:34N 59°10' E 005°21'9 8.5
2014-Nov-26 20:34N 59°19' E 005°19'0 0.0
2014-Nov-26 19:29N 59°19' E 005°19'4 3.9
2014-Nov-26 18:33N 59°22' E 005°18'7 0.2
2014-Nov-25 06:33N 59°29' E 005°13'9 8.6
2014-Nov-25 05:29N 59°20' E 005°18'0 0.2
2014-Nov-25 04:32N 59°20' E 005°18'0 0.0
2014-Nov-25 03:29N 59°20' E 005°18'5 5.2
2014-Nov-25 02:31N 59°15' E 005°21'1010.6
2014-Nov-25 01:33N 59°06' E 005°31'1010.3
2014-Nov-25 00:33N 59°01' E 005°48'1010.0
2014-Nov-24 23:34N 58°51' E 005°45'0 0.0
2014-Nov-24 22:32N 58°51' E 005°45'0 0.0
2014-Nov-24 21:29N 58°51' E 005°45'0 0.0
2014-Nov-24 20:32N 58°51' E 005°45'0 0.0
2014-Nov-24 19:34N 58°51' E 005°45'1010.2
2014-Nov-24 18:34N 59°01' E 005°48'8 7.8
2014-Nov-24 17:34N 58°59' E 005°33'1010.0
2014-Nov-24 16:34N 58°49' E 005°28'9 9.2
2014-Nov-24 15:33N 58°40' E 005°30'1010.0
2014-Nov-24 14:33N 58°31' E 005°39'1010.4
2014-Nov-24 13:33N 58°24' E 005°53'1110.7
2014-Nov-24 12:33N 58°17' E 006°09'1010.4
2014-Nov-24 11:33N 58°10' E 006°23'12610.1
2014-Nov-23 23:08N 57°47' E 010°17'711.8
2014-Nov-23 22:33N 57°46' E 010°29'10 8.9
2014-Nov-23 21:24N 57°41' E 010°46'107 3.7
2014-Nov-22 16:33N 56°00' E 011°51'2 2.4
2014-Nov-22 15:33N 55°58' E 011°51'3 3.3
2014-Nov-22 14:30N 56°01' E 011°50'91 3.1
2014-Nov-21 08:33N 54°30' E 011°39'1010.1
2014-Nov-21 07:33N 54°27' E 011°56'9 9.0
2014-Nov-21 06:32N 54°30' E 012°11'7811.0
2014-Nov-20 23:31N 55°06' E 014°10'1411.6
2014-Nov-20 22:22N 55°17' E 014°24'1311.5
2014-Nov-20 21:13N 55°26' E 014°40'811.8
2014-Nov-20 20:33N 55°31' E 014°52'1712.0
2014-Nov-20 19:11N 55°39' E 015°17'1012.0
2014-Nov-20 18:23N 55°44' E 015°31'1312.1
2014-Nov-20 17:18N 55°51' E 015°51'912.0
2014-Nov-20 16:33N 55°56' E 016°05'1212.0
2014-Nov-20 15:33N 56°02' E 016°24'8211.6
2014-Nov-20 08:29N 57°16' E 017°30'  
2014-Nov-17 16:24N 59°56' E 021°39'1011.5
2014-Nov-17 15:33N 59°51' E 021°24'1111.1
2014-Nov-17 14:33N 59°40' E 021°16'  
Track history (hours):
 
Tides and Currents Weather Stations Pressure Air Temp Water Temp Dewpoint Dewpoint Depression Visibility Wind Speed Wind Dir Waves Ship Positions

Baltic Betina

Last reported at 2014-Nov-27 03:32 UTC. Time now 2014-Nov-27 04:17 UTC.
Position N 58°36' E 005°34'.

Length 90 m; draft 4.5 m.

Type: Ship. MMSI: 215869000.

Date/timePositionNaut miles runAvg speedWind from/ knotsBaromVisibWave heightAir tempDewpointWater temp
2014-Nov-27 03:32N 58°36' E 005°34'7 7.0
2014-Nov-27 02:33N 58°43' E 005°28'8 7.6
2014-Nov-27 01:33N 58°50' E 005°28'6 6.1
2014-Nov-27 00:33N 58°55' E 005°35'0 0.0
2014-Nov-26 23:33N 58°55' E 005°35'7 7.0
2014-Nov-26 22:34N 59°02' E 005°32'1010.3
2014-Nov-26 21:34N 59°10' E 005°21'9 8.5
2014-Nov-26 20:34N 59°19' E 005°19'0 0.0
2014-Nov-26 19:29N 59°19' E 005°19'4 3.9
2014-Nov-26 18:33N 59°22' E 005°18'7 0.2
2014-Nov-25 06:33N 59°29' E 005°13'9 8.6
2014-Nov-25 05:29N 59°20' E 005°18'0 0.2
2014-Nov-25 04:32N 59°20' E 005°18'0 0.0
2014-Nov-25 03:29N 59°20' E 005°18'5 5.2
2014-Nov-25 02:31N 59°15' E 005°21'1010.6
2014-Nov-25 01:33N 59°06' E 005°31'1010.3
2014-Nov-25 00:33N 59°01' E 005°48'1010.0
2014-Nov-24 23:34N 58°51' E 005°45'0 0.0
2014-Nov-24 22:32N 58°51' E 005°45'0 0.0
2014-Nov-24 21:29N 58°51' E 005°45'0 0.0
2014-Nov-24 20:32N 58°51' E 005°45'0 0.0
2014-Nov-24 19:34N 58°51' E 005°45'1010.2
2014-Nov-24 18:34N 59°01' E 005°48'8 7.8
2014-Nov-24 17:34N 58°59' E 005°33'1010.0
2014-Nov-24 16:34N 58°49' E 005°28'9 9.2
2014-Nov-24 15:33N 58°40' E 005°30'1010.0
2014-Nov-24 14:33N 58°31' E 005°39'1010.4
2014-Nov-24 13:33N 58°24' E 005°53'1110.7
2014-Nov-24 12:33N 58°17' E 006°09'1010.4
2014-Nov-24 11:33N 58°10' E 006°23'12610.1
2014-Nov-23 23:08N 57°47' E 010°17'711.8
2014-Nov-23 22:33N 57°46' E 010°29'10 8.9
2014-Nov-23 21:24N 57°41' E 010°46'107 3.7
2014-Nov-22 16:33N 56°00' E 011°51'2 2.4
2014-Nov-22 15:33N 55°58' E 011°51'3 3.3
2014-Nov-22 14:30N 56°01' E 011°50'91 3.1
2014-Nov-21 08:33N 54°30' E 011°39'1010.1
2014-Nov-21 07:33N 54°27' E 011°56'9 9.0
2014-Nov-21 06:32N 54°30' E 012°11'7811.0
2014-Nov-20 23:31N 55°06' E 014°10'1411.6
2014-Nov-20 22:22N 55°17' E 014°24'1311.5
2014-Nov-20 21:13N 55°26' E 014°40'811.8
2014-Nov-20 20:33N 55°31' E 014°52'1712.0
2014-Nov-20 19:11N 55°39' E 015°17'1012.0
2014-Nov-20 18:23N 55°44' E 015°31'1312.1
2014-Nov-20 17:18N 55°51' E 015°51'912.0
2014-Nov-20 16:33N 55°56' E 016°05'1212.0
2014-Nov-20 15:33N 56°02' E 016°24'8211.6
2014-Nov-20 08:29N 57°16' E 017°30'  
2014-Nov-17 16:24N 59°56' E 021°39'1011.5
2014-Nov-17 15:33N 59°51' E 021°24'1111.1
2014-Nov-17 14:33N 59°40' E 021°16'  

Dump ship's entire track history